Time;durP1;ratioP1;P1;durP2;ratioP2;P2;SDS_P1;SDS_P2;PMS_P1;PMS_P2;Temp;Humidity;BMP_temperature;BMP_pressure;BME280_temperature;BME280_humidity;BME280_pressure;Samples;Min_cycle;Max_cycle;Signal;HPM_P1;HPM_P2
2022/01/18 00:01:28;;;;;;;5.90;1.40;;;;;;;4.49;100.00;102367.69;5073630;28;20182;-72
2022/01/18 00:03:54;;;;;;;11.23;1.67;;;;;;;4.50;100.00;102372.06;5073446;28;20191;-71
2022/01/18 00:06:20;;;;;;;7.73;1.10;;;;;;;4.48;100.00;102368.72;5073438;28;20170;-73
2022/01/18 00:08:45;;;;;;;9.40;1.13;;;;;;;4.47;100.00;102365.19;5073475;28;20347;-74
2022/01/18 00:11:11;;;;;;;3.57;1.60;;;;;;;4.48;100.00;102371.44;5073446;28;20694;-72
2022/01/18 00:13:45;;;;;;;9.30;1.53;;;;;;;4.49;100.00;102383.94;5073463;28;20653;-72
2022/01/18 00:19:02;;;;;;;3.93;1.50;;;;;;;4.47;100.00;102380.59;5073623;28;20190;-71
2022/01/18 00:23:56;;;;;;;3.93;0.77;;;;;;;4.43;100.00;102379.41;5073334;28;20631;-71
2022/01/18 00:26:26;;;;;;;7.57;2.70;;;;;;;4.44;100.00;102378.34;5071587;28;20179;-72
2022/01/18 00:28:57;;;;;;;8.20;1.70;;;;;;;4.43;100.00;102357.75;5071677;28;20198;-74
2022/01/18 00:34:18;;;;;;;13.20;1.60;;;;;;;4.40;100.00;102379.84;5073732;28;20258;-74
2022/01/18 00:39:12;;;;;;;4.83;0.90;;;;;;;4.41;100.00;102387.75;5072856;28;20189;-74
2022/01/18 00:41:39;;;;;;;9.90;1.27;;;;;;;4.43;100.00;102393.75;5073057;28;20183;-74
2022/01/18 00:44:05;;;;;;;6.10;1.13;;;;;;;4.44;100.00;102400.00;5072815;28;20174;-73
2022/01/18 00:46:31;;;;;;;3.73;1.23;;;;;;;4.45;100.00;102407.06;5072656;28;20261;-74
2022/01/18 00:49:01;;;;;;;6.67;1.20;;;;;;;4.43;100.00;102401.88;5072710;28;20297;-74
2022/01/18 00:51:28;;;;;;;2.60;1.30;;;;;;;4.42;100.00;102399.38;5072740;28;20224;-71
2022/01/18 00:53:56;;;;;;;10.60;0.77;;;;;;;4.42;100.00;102402.91;5071769;28;20179;-72
2022/01/18 00:56:25;;;;;;;2.30;1.00;;;;;;;4.40;100.00;102401.50;5072447;28;20269;-74
2022/01/18 00:58:51;;;;;;;2.90;1.10;;;;;;;4.38;100.00;102404.44;5072533;28;20181;-74
2022/01/18 01:01:18;;;;;;;2.93;0.87;;;;;;;4.37;100.00;102407.34;5071350;28;20175;-74
2022/01/18 01:03:44;;;;;;;4.20;0.73;;;;;;;4.34;100.00;102410.47;5072237;28;20224;-74
2022/01/18 01:06:11;;;;;;;6.13;2.13;;;;;;;4.31;100.00;102406.34;5072231;28;20182;-74
2022/01/18 01:08:36;;;;;;;0.33;0.20;;;;;;;4.29;100.00;102394.91;5072412;28;20225;-74
2022/01/18 01:11:07;;;;;;;5.00;1.00;;;;;;;4.24;100.00;102394.78;5072330;28;20178;-74
2022/01/18 01:13:35;;;;;;;1.50;1.10;;;;;;;4.24;100.00;102402.06;5071020;28;20738;-74
2022/01/18 01:34:45;;;;;;;9.33;1.23;;;;;;;4.20;100.00;102422.50;5071864;28;20633;-74
2022/01/18 01:41:43;;;;;;;1.20;0.90;;;;;;;4.22;100.00;102407.69;5071758;28;20194;-74
2022/01/18 01:45:35;;;;;;;3.30;1.23;;;;;;;4.28;100.00;102424.91;5071382;28;20221;-74
2022/01/18 01:48:01;;;;;;;1.17;0.43;;;;;;;4.29;100.00;102375.97;5071707;28;20216;-74
2022/01/18 01:50:39;;;;;;;9.53;1.87;;;;;;;4.31;100.00;102419.03;5071384;28;20588;-74
2022/01/18 01:53:05;;;;;;;5.83;1.63;;;;;;;4.32;100.00;102426.94;5070162;28;20166;-74
2022/01/18 01:55:30;;;;;;;1.20;1.17;;;;;;;4.31;100.00;102416.34;5071221;28;20174;-74
2022/01/18 01:57:56;;;;;;;0.97;0.97;;;;;;;4.32;100.00;102420.69;5071423;28;20232;-75
2022/01/18 02:00:21;;;;;;;3.10;1.27;;;;;;;4.30;100.00;102422.81;5070133;28;20667;-73
2022/01/18 02:02:47;;;;;;;7.73;1.67;;;;;;;4.28;100.00;102409.50;5071278;28;20244;-74
2022/01/18 02:05:12;;;;;;;1.40;1.17;;;;;;;4.29;100.00;102416.56;5071077;28;20841;-73
2022/01/18 02:07:38;;;;;;;8.47;1.53;;;;;;;4.27;100.00;102399.72;5069820;28;20512;-76
2022/01/18 02:10:07;;;;;;;0.63;0.50;;;;;;;4.29;100.00;102404.91;5069842;28;20171;-74
2022/01/18 02:12:33;;;;;;;10.33;2.17;;;;;;;4.25;100.00;102409.94;5071230;28;20258;-75
2022/01/18 02:15:00;;;;;;;1.90;1.47;;;;;;;4.23;100.00;102405.81;5069537;28;20204;-74
2022/01/18 02:22:56;;;;;;;6.53;0.90;;;;;;;4.20;100.00;102403.56;5071154;28;20675;-74
2022/01/18 02:25:23;;;;;;;6.83;1.10;;;;;;;4.19;100.00;102405.41;5069544;28;20197;-74
2022/01/18 02:27:49;;;;;;;1.90;0.40;;;;;;;4.18;100.00;102409.16;5070729;28;20303;-74
2022/01/18 02:30:14;;;;;;;3.60;0.83;;;;;;;4.16;100.00;102414.78;5070890;28;20659;-74
2022/01/18 02:32:40;;;;;;;1.53;0.60;;;;;;;4.16;100.00;102413.97;5069675;28;20622;-73
2022/01/18 02:35:06;;;;;;;6.90;1.20;;;;;;;4.16;100.00;102414.78;5069330;28;20231;-74
2022/01/18 02:37:31;;;;;;;0.90;0.63;;;;;;;4.15;100.00;102423.13;5069597;28;20638;-73
2022/01/18 02:39:57;;;;;;;1.97;1.00;;;;;;;4.14;100.00;102414.19;5070703;28;20183;-74
2022/01/18 02:42:28;;;;;;;6.70;0.90;;;;;;;4.16;100.00;102419.38;5070761;28;20534;-74
2022/01/18 02:44:54;;;;;;;1.70;1.53;;;;;;;4.17;100.00;102418.31;5070503;28;20174;-74
2022/01/18 02:47:21;;;;;;;12.23;1.47;;;;;;;4.18;100.00;102418.09;5070642;28;20181;-73
2022/01/18 02:49:47;;;;;;;3.37;1.70;;;;;;;4.20;100.00;102419.78;5070703;28;20202;-74
2022/01/18 02:52:14;;;;;;;3.17;0.63;;;;;;;4.19;100.00;102410.81;5070946;28;20177;-74
2022/01/18 02:54:40;;;;;;;4.10;0.60;;;;;;;4.22;100.00;102417.69;5070590;28;20217;-74
2022/01/18 02:57:11;;;;;;;3.30;0.60;;;;;;;4.22;100.00;102417.69;5069182;28;20206;-74
2022/01/18 03:05:15;;;;;;;2.97;0.77;;;;;;;4.20;100.00;102415.19;5070311;28;20197;-74
2022/01/18 03:07:42;;;;;;;7.73;1.37;;;;;;;4.22;100.00;102423.09;5070267;28;20194;-74
2022/01/18 03:10:10;;;;;;;2.17;0.63;;;;;;;4.21;100.00;102416.84;5070174;28;20634;-74
2022/01/18 03:12:35;;;;;;;7.37;0.77;;;;;;;4.20;100.00;102411.66;5069335;28;20170;-74
2022/01/18 03:15:00;;;;;;;2.63;0.87;;;;;;;4.18;100.00;102414.56;5068863;28;20653;-74
2022/01/18 03:17:26;;;;;;;2.20;0.93;;;;;;;4.19;100.00;102416.22;5070555;28;20174;-74
2022/01/18 03:19:51;;;;;;;1.87;0.60;;;;;;;4.18;100.00;102414.56;5070429;28;20171;-74
2022/01/18 03:22:17;;;;;;;2.87;0.90;;;;;;;4.18;100.00;102401.88;5070243;28;20528;-74
2022/01/18 03:30:18;;;;;;;0.70;0.70;;;;;;;4.15;100.00;102415.84;5070388;28;20288;-74
2022/01/18 03:32:44;;;;;;;2.10;0.70;;;;;;;4.14;100.00;102414.19;5068875;28;20220;-74
2022/01/18 03:35:09;;;;;;;3.20;0.70;;;;;;;4.15;100.00;102417.72;5069867;28;20623;-74
2022/01/18 03:37:36;;;;;;;1.80;0.50;;;;;;;4.14;100.00;102408.78;5070200;28;20696;-74
2022/01/18 03:40:03;;;;;;;1.13;0.40;;;;;;;4.15;100.00;102415.00;5070080;28;20174;-74
2022/01/18 03:42:42;;;;;;;3.23;0.90;;;;;;;4.15;100.00;102418.53;5070143;28;20178;-74
2022/01/18 03:45:12;;;;;;;5.03;0.93;;;;;;;4.16;100.00;102428.31;5068621;28;20638;-74
2022/01/18 03:47:37;;;;;;;1.70;0.70;;;;;;;4.16;100.00;102436.44;5069934;28;20198;-74
2022/01/18 03:50:05;;;;;;;4.17;0.67;;;;;;;4.18;100.00;102433.50;5070061;28;20654;-74
2022/01/18 03:52:30;;;;;;;0.83;0.83;;;;;;;4.18;100.00;102428.09;5068654;28;20174;-74
2022/01/18 03:54:56;;;;;;;0.87;0.80;;;;;;;4.19;100.00;102432.44;5070078;28;20186;-74
2022/01/18 03:57:22;;;;;;;0.10;0.10;;;;;;;4.18;100.00;102426.22;5070320;28;20206;-74
2022/01/18 03:59:47;;;;;;;2.50;0.60;;;;;;;4.19;100.00;102418.94;5068665;28;20190;-74
2022/01/18 04:02:13;;;;;;;2.30;0.83;;;;;;;4.16;100.00;102428.31;5071925;28;20206;-74
2022/01/18 04:04:39;;;;;;;0.67;0.43;;;;;;;4.13;100.00;102433.34;5072100;28;20671;-74
2022/01/18 04:07:06;;;;;;;3.07;1.10;;;;;;;4.12;100.00;102429.81;5073383;28;20182;-74
2022/01/18 04:09:31;;;;;;;0.80;0.40;;;;;;;4.13;100.00;102427.94;5073432;28;20198;-74
2022/01/18 04:11:57;;;;;;;0.10;0.10;;;;;;;4.15;100.00;102432.06;5073392;28;20680;-74
2022/01/18 04:14:24;;;;;;;0.80;0.80;;;;;;;4.17;100.00;102434.56;5073334;28;20261;-74
2022/01/18 04:17:12;;;;;;;5.70;0.57;;;;;;;4.18;100.00;102442.44;5071805;28;20224;-74
2022/01/18 04:27:51;;;;;;;2.53;1.13;;;;;;;4.23;100.00;102451.81;5072972;28;20197;-74
2022/01/18 04:30:17;;;;;;;1.83;0.97;;;;;;;4.24;100.00;102451.56;5073050;28;20429;-74
2022/01/18 04:32:43;;;;;;;2.97;0.70;;;;;;;4.26;100.00;102451.34;5073321;28;20199;-73
2022/01/18 04:35:09;;;;;;;0.93;0.67;;;;;;;4.26;100.00;102451.34;5071572;28;20178;-74
2022/01/18 04:37:34;;;;;;;1.53;1.13;;;;;;;4.27;100.00;102459.25;5073126;28;20552;-73
2022/01/18 04:40:06;;;;;;;1.60;0.73;;;;;;;4.29;100.00;102459.84;5072870;28;20174;-73
2022/01/18 04:42:48;;;;;;;1.17;1.07;;;;;;;4.31;100.00;102454.22;5071469;28;20242;-73
2022/01/18 04:50:41;;;;;;;1.10;0.93;;;;;;;4.29;100.00;102448.19;5073381;28;20169;-74
2022/01/18 04:53:06;;;;;;;0.37;0.37;;;;;;;4.31;100.00;102454.22;5071569;28;20167;-74
2022/01/18 04:55:33;;;;;;;5.30;1.30;;;;;;;4.33;100.00;102449.41;5071206;28;20335;-74
2022/01/18 04:57:58;;;;;;;2.10;1.47;;;;;;;4.33;100.00;102450.25;5071103;28;20236;-74
2022/01/18 05:00:25;;;;;;;1.77;1.40;;;;;;;4.34;100.00;102449.22;5072506;28;20179;-74
2022/01/18 05:02:51;;;;;;;5.00;2.13;;;;;;;4.33;100.00;102439.41;5072497;28;20181;-74
2022/01/18 05:05:24;;;;;;;1.97;1.57;;;;;;;4.34;100.00;102438.41;5070705;28;20179;-73
2022/01/18 05:07:55;;;;;;;3.00;1.80;;;;;;;4.35;100.00;102452.75;5070981;28;20202;-73
2022/01/18 05:10:23;;;;;;;1.50;1.40;;;;;;;4.36;100.00;102451.69;5072272;28;20265;-74
2022/01/18 05:12:52;;;;;;;4.13;2.17;;;;;;;4.35;100.00;102452.75;5069954;28;20600;-74
2022/01/18 05:23:08;;;;;;;3.33;1.57;;;;;;;4.33;100.00;102462.94;5071951;28;20182;-74
2022/01/18 05:25:35;;;;;;;5.47;1.30;;;;;;;4.33;100.00;102471.88;5070877;28;20649;-74
2022/01/18 05:28:02;;;;;;;1.77;1.50;;;;;;;4.34;100.00;102467.31;5074882;28;20202;-74
2022/01/18 05:30:28;;;;;;;2.27;2.07;;;;;;;4.38;100.00;102474.78;5077998;28;20201;-73
2022/01/18 05:32:54;;;;;;;4.90;1.70;;;;;;;4.41;100.00;102478.91;5073083;28;20236;-74
2022/01/18 05:35:20;;;;;;;3.10;2.10;;;;;;;4.41;100.00;102474.34;5071130;28;20550;-74
2022/01/18 05:37:47;;;;;;;2.67;2.07;;;;;;;4.41;100.00;102470.81;5071688;28;20736;-74
2022/01/18 05:40:13;;;;;;;1.87;1.40;;;;;;;4.39;100.00;102475.59;5072544;28;20823;-74
2022/01/18 05:42:38;;;;;;;4.80;1.90;;;;;;;4.38;100.00;102479.38;5070493;28;20181;-74
2022/01/18 05:45:04;;;;;;;1.87;1.43;;;;;;;4.36;100.00;102487.72;5070585;28;20170;-74
2022/01/18 05:47:29;;;;;;;8.50;1.90;;;;;;;4.37;100.00;102493.94;5072090;28;20202;-74
2022/01/18 05:49:55;;;;;;;3.40;1.70;;;;;;;4.36;100.00;102492.28;5071448;28;20179;-74
2022/01/18 05:52:20;;;;;;;1.93;1.77;;;;;;;4.38;100.00;102498.31;5070133;28;20171;-73
2022/01/18 05:54:46;;;;;;;2.93;2.00;;;;;;;4.41;100.00;102501.41;5071274;28;20724;-74
2022/01/18 05:57:11;;;;;;;1.93;1.33;;;;;;;4.42;100.00;102513.06;5070002;28;20171;-74
2022/01/18 05:59:39;;;;;;;4.67;2.60;;;;;;;4.43;100.00;102499.28;5071161;28;20178;-74
2022/01/18 06:02:30;;;;;;;4.07;1.83;;;;;;;4.44;100.00;102511.78;5071517;28;20198;-73
2022/01/18 06:07:39;;;;;;;6.10;2.83;;;;;;;4.45;100.00;102512.59;5071106;28;20205;-74
2022/01/18 06:10:04;;;;;;;4.80;2.60;;;;;;;4.45;100.00;102512.59;5070908;28;20174;-74
2022/01/18 06:12:30;;;;;;;2.17;1.73;;;;;;;4.46;100.00;102515.09;5070967;28;20175;-74
2022/01/18 06:14:57;;;;;;;7.90;3.17;;;;;;;4.46;100.00;102525.91;5070680;28;20261;-74
2022/01/18 06:17:23;;;;;;;3.37;1.63;;;;;;;4.46;100.00;102520.50;5070965;28;20186;-74
2022/01/18 06:19:48;;;;;;;2.47;2.07;;;;;;;4.47;100.00;102534.88;5070949;28;20200;-74
2022/01/18 06:22:14;;;;;;;6.47;2.27;;;;;;;4.47;100.00;102535.69;5069494;28;20331;-74
2022/01/18 06:24:39;;;;;;;8.23;3.10;;;;;;;4.48;100.00;102533.81;5070368;28;20187;-74
2022/01/18 06:27:05;;;;;;;3.67;3.00;;;;;;;4.50;100.00;102542.56;5070678;28;20252;-73
2022/01/18 06:29:30;;;;;;;7.73;2.80;;;;;;;4.52;100.00;102539.63;5070797;28;20198;-74
2022/01/18 06:31:56;;;;;;;10.23;4.40;;;;;;;4.54;100.00;102541.06;5070790;28;20186;-74
2022/01/18 06:34:21;;;;;;;6.17;3.57;;;;;;;4.55;100.00;102537.31;5069355;28;20178;-74
2022/01/18 06:36:46;;;;;;;5.47;2.27;;;;;;;4.55;100.00;102531.91;5069097;28;20642;-73
2022/01/18 06:39:12;;;;;;;4.57;2.93;;;;;;;4.54;100.00;102532.94;5070495;28;20585;-74
2022/01/18 06:41:38;;;;;;;4.00;2.50;;;;;;;4.56;100.00;102544.38;5070586;28;20185;-73
2022/01/18 06:44:04;;;;;;;5.30;2.50;;;;;;;4.56;100.00;102540.84;5070637;28;20167;-74
2022/01/18 06:46:29;;;;;;;5.13;2.93;;;;;;;4.55;100.00;102539.19;5070234;28;20653;-74
2022/01/18 06:48:54;;;;;;;3.80;3.27;;;;;;;4.58;100.00;102549.56;5070782;28;20202;-74
2022/01/18 06:51:20;;;;;;;5.63;3.43;;;;;;;4.56;100.00;102552.50;5070432;28;20532;-73
2022/01/18 06:53:48;;;;;;;4.03;3.10;;;;;;;4.57;100.00;102551.44;5069164;28;20174;-74
2022/01/18 06:56:15;;;;;;;3.93;2.50;;;;;;;4.58;100.00;102555.00;5070381;28;20198;-74
2022/01/18 06:58:44;;;;;;;3.23;2.83;;;;;;;4.60;100.00;102564.53;5070565;28;20307;-74
2022/01/18 07:01:10;;;;;;;7.57;3.43;;;;;;;4.61;100.00;102555.38;5070433;28;20232;-74
2022/01/18 07:03:36;;;;;;;2.97;2.67;;;;;;;4.59;100.00;102551.22;5069041;28;20725;-74
2022/01/18 07:06:01;;;;;;;3.13;2.83;;;;;;;4.57;100.00;102551.44;5068638;28;20291;-74
2022/01/18 07:08:26;;;;;;;4.47;2.20;;;;;;;4.55;100.00;102552.72;5070397;28;20202;-74
2022/01/18 07:10:52;;;;;;;4.00;2.07;;;;;;;4.50;100.00;102545.28;5070623;28;20245;-74
2022/01/18 07:13:17;;;;;;;3.57;1.70;;;;;;;4.47;100.00;102557.34;5070308;28;20257;-73
2022/01/18 07:15:42;;;;;;;7.27;1.90;;;;;;;4.46;100.00;102569.22;5068773;28;20429;-74
2022/01/18 07:18:10;;;;;;;3.27;2.90;;;;;;;4.48;100.00;102555.47;5068894;28;20175;-74
2022/01/18 07:20:36;;;;;;;1.93;1.53;;;;;;;4.50;100.00;102566.09;5068934;28;20188;-74
2022/01/18 07:23:01;;;;;;;2.00;1.70;;;;;;;4.51;100.00;102571.28;5070039;28;20265;-74
2022/01/18 07:25:26;;;;;;;2.77;2.43;;;;;;;4.52;100.00;102578.34;5069898;28;20231;-74
2022/01/18 07:27:52;;;;;;;2.20;1.80;;;;;;;4.54;100.00;102586.25;5069084;28;20256;-74
2022/01/18 07:30:17;;;;;;;2.23;2.00;;;;;;;4.54;100.00;102581.69;5068752;28;20219;-74
2022/01/18 07:32:43;;;;;;;2.67;1.77;;;;;;;4.54;100.00;102581.69;5070206;28;20171;-74
2022/01/18 07:35:11;;;;;;;2.97;2.30;;;;;;;4.54;100.00;102578.97;5069754;28;20712;-74
2022/01/18 07:37:36;;;;;;;2.97;2.20;;;;;;;4.54;100.00;102580.84;5072973;28;20175;-74
2022/01/18 07:40:03;;;;;;;4.47;3.10;;;;;;;4.55;100.00;102585.22;5072580;28;20217;-74
2022/01/18 07:42:28;;;;;;;4.97;2.90;;;;;;;4.57;100.00;102592.06;5072710;28;20198;-74
2022/01/18 07:44:54;;;;;;;2.30;1.90;;;;;;;4.60;100.00;102588.06;5072430;28;20587;-74
2022/01/18 07:47:20;;;;;;;3.03;2.27;;;;;;;4.58;100.00;102582.88;5072305;28;20179;-74
2022/01/18 07:49:47;;;;;;;3.00;2.57;;;;;;;4.58;100.00;102585.59;5072241;28;20183;-74
2022/01/18 07:52:12;;;;;;;2.60;2.40;;;;;;;4.58;100.00;102585.59;5073752;28;20460;-74
2022/01/18 07:54:37;;;;;;;2.80;1.70;;;;;;;4.58;100.00;102582.06;5073682;28;20596;-74
2022/01/18 07:57:03;;;;;;;2.80;2.60;;;;;;;4.59;100.00;102584.53;5072191;28;20175;-74
2022/01/18 07:59:28;;;;;;;2.67;2.30;;;;;;;4.61;100.00;102587.03;5073544;28;20205;-73
2022/01/18 08:01:55;;;;;;;3.40;2.33;;;;;;;4.62;100.00;102581.41;5073484;28;20644;-73
2022/01/18 08:04:20;;;;;;;5.90;3.37;;;;;;;4.65;100.00;102591.81;5072866;28;20580;-73
2022/01/18 08:06:46;;;;;;;2.90;2.50;;;;;;;4.67;100.00;102592.41;5073407;28;20198;-74
2022/01/18 08:09:11;;;;;;;2.63;1.67;;;;;;;4.67;100.00;102580.75;5072138;28;20252;-74
2022/01/18 08:11:36;;;;;;;3.47;2.73;;;;;;;4.69;100.00;102601.16;5072055;28;20639;-74
2022/01/18 08:14:03;;;;;;;3.80;2.97;;;;;;;4.72;100.00;102600.69;5073244;28;20182;-66
2022/01/18 08:19:00;;;;;;;2.80;2.27;;;;;;;4.78;100.00;102607.13;5073349;28;20244;-74
2022/01/18 08:21:25;;;;;;;10.00;2.13;;;;;;;4.77;100.00;102609.00;5071736;28;20205;-74
2022/01/18 08:23:51;;;;;;;3.40;2.97;;;;;;;4.77;100.00;102609.00;5073007;28;20661;-74
2022/01/18 08:26:17;;;;;;;3.40;2.50;;;;;;;4.80;100.00;102607.75;5071751;28;20618;-74
2022/01/18 08:28:43;;;;;;;6.13;3.20;;;;;;;4.86;100.00;102611.44;5071515;28;20670;-75
2022/01/18 08:31:08;;;;;;;3.90;3.23;;;;;;;4.90;100.00;102609.94;5072973;28;20209;-74
2022/01/18 08:33:34;;;;;;;6.47;3.40;;;;;;;4.93;100.00;102625.78;5073137;28;20575;-75
2022/01/18 08:36:01;;;;;;;5.07;3.17;;;;;;;4.95;100.00;102613.66;5071602;28;20213;-75
2022/01/18 08:38:27;;;;;;;3.83;3.43;;;;;;;4.98;100.00;102618.63;5072876;28;20186;-75
2022/01/18 08:40:54;;;;;;;5.03;3.63;;;;;;;4.99;100.00;102617.59;5072850;28;20190;-74
2022/01/18 08:43:20;;;;;;;6.33;3.57;;;;;;;5.01;100.00;102615.47;5071404;28;20546;-76
2022/01/18 08:45:45;;;;;;;6.87;4.40;;;;;;;5.01;100.00;102611.94;5071162;28;20171;-75
2022/01/18 08:48:11;;;;;;;6.87;4.30;;;;;;;5.03;100.00;102623.38;5071129;28;20260;-76
2022/01/18 08:50:36;;;;;;;6.77;3.63;;;;;;;5.05;100.00;102608.56;5072617;28;20170;-76
2022/01/18 08:53:02;;;;;;;4.00;3.60;;;;;;;5.07;100.00;102605.66;5072563;28;20262;-75
2022/01/18 08:55:27;;;;;;;4.17;3.30;;;;;;;5.12;100.00;102611.22;5071249;28;20255;-75
2022/01/18 08:57:53;;;;;;;5.17;3.43;;;;;;;5.15;100.00;102605.38;5071375;28;20198;-75
2022/01/18 09:00:19;;;;;;;3.77;2.83;;;;;;;5.15;100.00;102607.25;5071086;28;20196;-75
2022/01/18 09:02:44;;;;;;;7.87;4.33;;;;;;;5.14;100.00;102611.84;5070994;28;20541;-75
2022/01/18 09:05:10;;;;;;;4.57;3.63;;;;;;;5.12;100.00;102615.81;5070561;28;20170;-75
2022/01/18 09:07:37;;;;;;;2.37;2.17;;;;;;;5.08;100.00;102610.84;5070910;28;20674;-74
2022/01/18 09:10:07;;;;;;;4.07;3.67;;;;;;;5.06;100.00;102614.81;5068317;28;20182;-75
2022/01/18 09:12:34;;;;;;;3.50;3.20;;;;;;;5.03;100.00;102616.09;5076054;28;20174;-76
2022/01/18 09:15:04;;;;;;;3.23;1.97;;;;;;;5.03;100.00;102613.38;5077811;28;20170;-75
2022/01/18 09:17:29;;;;;;;5.00;2.97;;;;;;;5.05;100.00;102618.56;5072247;28;20194;-76
2022/01/18 09:19:56;;;;;;;5.17;3.30;;;;;;;5.12;100.00;102632.06;5070872;28;20178;-75
2022/01/18 09:22:22;;;;;;;4.20;3.00;;;;;;;5.15;100.00;102624.31;5071197;28;20170;-75
2022/01/18 09:24:47;;;;;;;13.80;5.60;;;;;;;5.17;100.00;102624.09;5071635;28;20189;-77
2022/01/18 09:27:12;;;;;;;11.00;4.20;;;;;;;5.22;100.00;102627.81;5070568;28;20635;-73
2022/01/18 09:29:40;;;;;;;8.33;4.47;;;;;;;5.37;100.00;102636.44;5070578;28;20198;-73
2022/01/18 09:32:06;;;;;;;4.07;3.37;;;;;;;5.43;100.00;102642.03;5072221;28;20204;-73
2022/01/18 09:34:31;;;;;;;11.73;4.37;;;;;;;5.44;100.00;102636.38;5072271;28;20170;-73
2022/01/18 09:36:57;;;;;;;6.50;4.23;;;;;;;5.47;100.00;102621.53;5071407;28;20190;-73
2022/01/18 09:39:23;;;;;;;8.47;4.83;;;;;;;5.45;100.00;102631.78;5071759;28;20649;-74
2022/01/18 09:41:51;;;;;;;12.63;4.17;;;;;;;5.50;100.00;102640.09;5070598;28;20171;-74
2022/01/18 09:44:18;;;;;;;8.10;5.27;;;;;;;5.52;100.00;102637.97;5071633;28;20575;-74
2022/01/18 09:46:44;;;;;;;11.17;6.17;;;;;;;5.55;100.00;102632.09;5071380;28;20197;-74
2022/01/18 09:49:10;;;;;;;6.90;5.10;;;;;;;5.60;100.00;102648.50;5071481;28;20209;-75
2022/01/18 09:51:35;;;;;;;11.33;5.23;;;;;;;5.64;100.00;102641.59;5071502;28;20174;-74
2022/01/18 09:54:01;;;;;;;6.83;6.07;;;;;;;5.67;100.00;102642.00;5071550;28;20178;-74
2022/01/18 09:56:27;;;;;;;11.53;5.77;;;;;;;5.71;100.00;102652.38;5071307;28;20210;-74
2022/01/18 09:58:52;;;;;;;18.10;6.73;;;;;;;5.72;100.00;102633.16;5070958;28;20202;-74
2022/01/18 10:01:19;;;;;;;6.83;4.60;;;;;;;5.78;100.00;102645.81;5070103;28;20175;-74
2022/01/18 10:03:45;;;;;;;7.53;4.50;;;;;;;5.82;100.00;102648.94;5071111;28;20175;-74
2022/01/18 10:06:10;;;;;;;15.00;8.07;;;;;;;5.87;100.00;102658.03;5071255;28;20560;-74
2022/01/18 10:08:42;;;;;;;7.73;4.93;;;;;;;5.90;100.00;102644.06;5071034;28;20214;-73
2022/01/18 10:11:15;;;;;;;22.77;7.00;;;;;;;5.91;100.00;102651.13;5071046;28;20189;-73
2022/01/18 10:13:42;;;;;;;11.07;4.40;;;;;;;5.91;100.00;102650.31;5071065;28;20169;-73
2022/01/18 10:16:15;;;;;;;6.80;4.00;;;;;;;5.87;100.00;102630.91;5069464;28;20179;-73
2022/01/18 10:18:48;;;;;;;12.97;5.17;;;;;;;5.84;100.00;102636.78;5071060;28;20264;-73
2022/01/18 10:21:41;;;;;;;10.40;4.37;;;;;;;5.82;100.00;102640.78;5069707;28;20182;-73
2022/01/18 10:24:16;;;;;;;9.17;5.13;;;;;;;5.89;100.00;102639.66;5070352;28;20281;-74
2022/01/18 10:26:44;;;;;;;11.17;6.33;;;;;;;5.95;100.00;102640.69;5068172;28;20181;-73
2022/01/18 10:29:11;;;;;;;14.57;8.00;;;;;;;6.02;100.00;102648.72;5068163;28;20206;-74
2022/01/18 10:31:54;;;;;;;11.40;8.23;;;;;;;6.03;100.00;102634.94;5068176;28;20654;-74
2022/01/18 10:35:04;;;;;;;12.60;7.13;;;;;;;6.07;100.00;102648.88;5067601;28;20223;-73
2022/01/18 10:37:09;;;;;;;9.90;5.03;;;;;;;6.13;100.00;102642.56;5066791;28;20194;-74
2022/01/18 10:39:37;;;;;;;18.37;7.33;;;;;;;6.23;100.00;102648.28;5068135;28;20653;-74
2022/01/18 10:42:26;;;;;;;12.40;7.30;;;;;;;6.24;100.00;102636.38;5069499;28;20177;-74
2022/01/18 10:45:23;;;;;;;14.63;5.97;;;;;;;6.24;100.00;102639.06;5067861;28;20174;-74
2022/01/18 10:48:11;;;;;;;13.47;6.47;;;;;;;6.18;100.00;102635.38;5048841;28;20218;-74
2022/01/18 10:50:38;;;;;;;11.17;5.77;;;;;;;6.15;100.00;102632.28;5050679;28;20187;-73
2022/01/18 10:53:17;;;;;;;7.50;3.57;;;;;;;6.16;100.00;102629.34;5049316;28;20171;-74
2022/01/18 10:55:44;;;;;;;7.17;3.43;;;;;;;6.14;100.00;102625.22;5050358;28;20179;-73
2022/01/18 10:58:14;;;;;;;4.93;4.07;;;;;;;6.08;100.00;102626.13;5049147;28;20273;-74
2022/01/18 11:00:40;;;;;;;9.10;5.53;;;;;;;6.07;100.00;102627.16;5050316;28;20202;-74
2022/01/18 11:03:07;;;;;;;9.93;4.70;;;;;;;6.10;100.00;102619.41;5048996;28;20179;-73
2022/01/18 11:05:35;;;;;;;5.63;3.93;;;;;;;6.21;100.00;102625.94;5050302;28;20262;-73
2022/01/18 11:08:04;;;;;;;10.67;4.37;;;;;;;6.30;100.00;102627.28;5050163;28;20210;-74
2022/01/18 11:10:48;;;;;;;10.53;5.07;;;;;;;6.31;100.00;102622.69;5049011;28;20175;-73
2022/01/18 11:13:24;;;;;;;3.70;3.10;;;;;;;6.30;100.00;102621.88;5054566;28;20185;-74
2022/01/18 11:15:53;;;;;;;14.43;5.27;;;;;;;6.35;100.00;102616.56;5052901;28;20187;-75
2022/01/18 11:18:29;;;;;;;10.43;3.37;;;;;;;6.44;100.00;102626.06;5054467;28;20232;-74
2022/01/18 11:20:55;;;;;;;9.30;5.10;;;;;;;6.45;100.00;102611.41;5054324;28;20684;-74
2022/01/18 11:23:22;;;;;;;11.87;5.00;;;;;;;6.48;100.00;102615.56;5054284;28;20352;-74
2022/01/18 11:25:50;;;;;;;10.00;4.97;;;;;;;6.52;100.00;102601.31;5054023;28;20652;-74
2022/01/18 11:28:16;;;;;;;8.27;4.83;;;;;;;6.49;100.00;102618.03;5054014;28;20209;-73
2022/01/18 11:30:43;;;;;;;12.10;5.27;;;;;;;6.46;100.00;102610.34;5052988;28;20183;-74
2022/01/18 11:33:14;;;;;;;6.70;3.30;;;;;;;6.41;100.00;102609.41;5054023;28;20209;-73
2022/01/18 11:36:02;;;;;;;8.13;4.33;;;;;;;6.30;100.00;102596.59;5053974;28;20229;-74
2022/01/18 11:38:40;;;;;;;10.37;3.30;;;;;;;6.26;100.00;102604.38;5053968;28;20198;-74
2022/01/18 11:41:06;;;;;;;8.90;3.30;;;;;;;6.24;100.00;102598.38;5053806;28;20175;-74
2022/01/18 11:43:45;;;;;;;8.37;3.43;;;;;;;6.24;100.00;102595.66;5053787;28;20650;-74
2022/01/18 11:46:24;;;;;;;7.80;3.43;;;;;;;6.30;100.00;102592.00;5053613;28;20655;-74
2022/01/18 11:49:02;;;;;;;5.03;3.53;;;;;;;6.30;100.00;102581.16;5053673;28;20202;-74
2022/01/18 11:51:39;;;;;;;6.63;3.53;;;;;;;6.24;100.00;102582.91;5053646;28;20258;-74
2022/01/18 11:54:26;;;;;;;11.53;3.37;;;;;;;6.28;100.00;102574.28;5053771;28;20233;-73
2022/01/18 11:56:51;;;;;;;9.83;3.90;;;;;;;6.28;100.00;102577.84;5053312;28;20190;-73
2022/01/18 11:59:21;;;;;;;13.47;4.60;;;;;;;6.21;100.00;102582.50;5052329;28;20643;-72
2022/01/18 12:01:55;;;;;;;5.70;3.00;;;;;;;6.21;100.00;102588.75;5053424;28;20179;-73
2022/01/18 12:07:05;;;;;;;13.10;4.50;;;;;;;6.22;100.00;102598.59;5053421;28;20489;-72
2022/01/18 12:09:47;;;;;;;10.40;3.57;;;;;;;6.24;100.00;102595.66;5053237;28;20235;-72
2022/01/18 12:12:41;;;;;;;10.57;3.93;;;;;;;6.18;100.00;102591.13;5053210;28;20380;-72
2022/01/18 12:15:16;;;;;;;15.37;5.03;;;;;;;6.16;100.00;102595.94;5051585;28;20228;-72
2022/01/18 12:17:52;;;;;;;5.00;3.13;;;;;;;6.17;100.00;102600.31;5051905;28;20553;-73
2022/01/18 12:20:37;;;;;;;7.03;3.93;;;;;;;6.19;100.00;102596.31;5052065;28;20261;-72
2022/01/18 12:23:05;;;;;;;8.77;4.57;;;;;;;6.23;100.00;102600.25;5059775;28;20213;-73
2022/01/18 12:25:35;;;;;;;2.87;2.63;;;;;;;6.19;100.00;102598.19;5056711;28;20250;-72
2022/01/18 12:28:52;;;;;;;11.70;6.43;;;;;;;6.19;100.00;102609.06;5051652;28;20195;-73
2022/01/18 12:37:16;;;;;;;9.73;5.47;;;;;;;6.22;100.00;102601.31;5052749;28;20190;-73
2022/01/18 12:39:51;;;;;;;19.87;6.03;;;;;;;6.26;100.00;102598.97;5049967;28;20206;-73
2022/01/18 12:45:16;;;;;;;12.30;4.93;;;;;;;6.34;100.00;102604.06;5052552;28;20176;-72
2022/01/18 12:47:48;;;;;;;6.10;2.70;;;;;;;6.35;100.00;102597.56;5052347;28;20220;-72
2022/01/18 12:50:19;;;;;;;11.27;4.70;;;;;;;6.42;100.00;102594.78;5052613;28;20175;-73
2022/01/18 12:52:57;;;;;;;14.70;4.53;;;;;;;6.50;100.00;102592.53;5051270;28;20185;-72
2022/01/18 12:55:36;;;;;;;13.77;4.90;;;;;;;6.52;100.00;102603.19;5050970;28;20171;-73
2022/01/18 12:58:12;;;;;;;10.20;5.20;;;;;;;6.59;100.00;102600.38;5051070;28;20186;-73
2022/01/18 13:00:42;;;;;;;13.37;5.53;;;;;;;6.67;100.00;102592.72;5052474;28;20578;-73